YHCT weather

Heathcote Emergency Airport
New South Wales, Australia

Public forecast

Using degrees Celsius for public forecast. Weather courtesy of forecast.io.

METAR (pilot weather report)

Closest report is Tamworth Airport, 31.5 nm (58.3 km) WNW. Retrieved 2019/02/21 06:00 UTC (19 minutes ago):

YSTW 210600Z AUTO 13019KT 9999 // NCD 32/12 Q1009 RF00.0/000.0

TAF (pilot weather forecast)

Forecast is more than 12 hours old.

Closest forecast is Tamworth Airport, 31.5 nm (58.3 km) WNW. Retrieved 2019/02/20 00:36 UTC (1 day ago):

TAF TAF YSTW 202316Z 2100/2118 13014KT CAVOK FM210200 13014KT 9999 -SHRA SCT060 FM211000 14013KT 9999 SCT050 PROB30 INTER 2102/2110 VRB20G35KT 3000 TSRA SCT010 SCT060CB